Weather at Hartsfield Jackson Atlanta International Airport

Public forecast

Using degrees Fahrenheit for public forecast. Weather courtesy of forecast.io.

Current aviation weather report (METAR) for Hartsfield Jackson Atlanta International Airport

2024/05/20 20:52 (retrieved 1 hour ago)

KATL 202052Z 12006KT 10SM FEW055 SCT250 29/14 A2998 RMK AO2 SLP143 T02890139 58017

Aviation forecast (TAF) for Hartsfield Jackson Atlanta International Airport

2024/05/20 22:36 Ammendment (retrieved 0 seconds ago)

TAF AMD KATL 202134Z 2022/2124 10008KT P6SM FEW050 FM210100 12003KT P6SM SCT100 FM210600 12005KT P6SM FEW050 SCT080 FM211500 14005KT P6SM FEW050